Time;durP1;ratioP1;P1;durP2;ratioP2;P2;SDS_P1;SDS_P2;PMS_P1;PMS_P2;Temp;Humidity;BMP_temperature;BMP_pressure;BME280_temperature;BME280_humidity;BME280_pressure;Samples;Min_cycle;Max_cycle;Signal;HPM_P1;HPM_P2
2022/06/15 00:01:05;;;;;;;3.50;3.30;;;17.90;99.90;;;;;;5046676;28;20298;-52
2022/06/15 00:03:36;;;;;;;3.27;3.07;;;17.80;99.90;;;;;;5047637;28;20366;-52
2022/06/15 00:06:10;;;;;;;4.27;3.70;;;17.70;99.90;;;;;;5044336;28;20304;-52
2022/06/15 00:08:38;;;;;;;3.50;3.20;;;17.60;99.90;;;;;;5046451;28;20709;-52
2022/06/15 00:11:06;;;;;;;2.63;2.53;;;17.50;99.90;;;;;;5049475;28;20626;-52
2022/06/15 00:13:34;;;;;;;3.67;3.47;;;17.50;99.90;;;;;;5046727;28;20232;-52
2022/06/15 00:16:01;;;;;;;4.73;4.47;;;17.50;99.90;;;;;;5047965;28;20193;-52
2022/06/15 00:18:28;;;;;;;4.37;3.97;;;17.40;99.90;;;;;;5048945;28;20279;-52
2022/06/15 00:20:57;;;;;;;3.50;3.23;;;17.40;99.90;;;;;;5049647;28;20202;-52
2022/06/15 00:23:27;;;;;;;4.90;4.70;;;17.40;99.90;;;;;;5046271;28;20329;-52
2022/06/15 00:25:54;;;;;;;4.20;4.00;;;17.40;99.90;;;;;;5049581;28;20315;-52
2022/06/15 00:28:22;;;;;;;4.53;4.27;;;17.30;99.90;;;;;;5048915;28;20240;-52
2022/06/15 00:30:50;;;;;;;4.47;4.07;;;17.20;99.90;;;;;;5049713;28;20260;-52
2022/06/15 00:33:19;;;;;;;5.70;3.93;;;17.10;99.90;;;;;;5048609;28;20218;-51
2022/06/15 00:35:55;;;;;;;3.13;3.03;;;17.00;99.90;;;;;;5050643;28;20198;-52
2022/06/15 00:38:23;;;;;;;5.03;4.73;;;16.90;99.90;;;;;;5049994;28;20230;-52
2022/06/15 00:40:51;;;;;;;4.20;3.93;;;16.90;99.90;;;;;;5048109;28;20660;-52
2022/06/15 00:43:35;;;;;;;4.53;4.40;;;16.80;99.90;;;;;;5046421;28;20276;-52
2022/06/15 00:46:16;;;;;;;4.17;3.90;;;16.90;99.90;;;;;;5046221;28;20241;-52
2022/06/15 00:48:45;;;;;;;3.73;3.57;;;16.90;99.90;;;;;;5046147;28;20232;-52
2022/06/15 00:51:12;;;;;;;4.67;4.47;;;16.80;99.90;;;;;;5041536;28;20252;-52
2022/06/15 00:53:39;;;;;;;3.90;3.60;;;16.90;99.90;;;;;;5048946;28;20368;-52
2022/06/15 00:56:09;;;;;;;3.93;3.73;;;16.80;99.90;;;;;;5048091;28;20190;-52
2022/06/15 00:58:37;;;;;;;3.83;3.73;;;16.70;99.90;;;;;;5050244;28;20212;-52
2022/06/15 01:01:05;;;;;;;3.13;3.03;;;16.60;99.90;;;;;;5052098;28;20209;-52
2022/06/15 01:03:32;;;;;;;4.07;3.87;;;16.50;99.90;;;;;;5050104;28;20741;-52
2022/06/15 01:06:08;;;;;;;10.83;4.93;;;16.40;99.90;;;;;;5052153;28;20218;-52
2022/06/15 01:08:42;;;;;;;4.23;4.03;;;16.40;99.90;;;;;;5051333;28;20576;-52
2022/06/15 01:11:22;;;;;;;5.13;4.57;;;16.30;99.90;;;;;;5050838;28;20202;-52
2022/06/15 01:14:17;;;;;;;4.73;4.33;;;16.30;99.90;;;;;;5050477;28;20285;-51
2022/06/15 01:16:51;;;;;;;4.40;4.17;;;16.20;99.90;;;;;;5005975;28;20236;-51
2022/06/15 01:19:51;;;;;;;4.60;4.30;;;16.30;99.90;;;;;;5050721;28;20236;-52
2022/06/15 01:22:42;;;;;;;4.13;3.93;;;16.20;99.90;;;;;;5043899;28;20282;-52
2022/06/15 01:25:34;;;;;;;3.80;3.60;;;16.20;99.90;;;;;;5044523;28;20285;-51
2022/06/15 01:28:29;;;;;;;4.33;4.10;;;16.20;99.90;;;;;;5052555;28;20275;-52
2022/06/15 01:31:02;;;;;;;4.00;3.70;;;16.10;99.90;;;;;;5050532;28;20252;-52
2022/06/15 01:33:36;;;;;;;4.13;3.93;;;16.10;99.90;;;;;;5050922;28;20221;-52
2022/06/15 01:36:14;;;;;;;4.67;4.37;;;16.10;99.90;;;;;;5053353;28;20205;-51
2022/06/15 01:38:52;;;;;;;4.20;3.90;;;16.00;99.90;;;;;;5050848;28;20204;-52
2022/06/15 01:41:25;;;;;;;4.87;4.60;;;16.00;99.90;;;;;;5045229;28;20271;-51
2022/06/15 01:43:58;;;;;;;5.57;5.20;;;16.00;99.90;;;;;;5050456;28;20675;-52
2022/06/15 01:46:27;;;;;;;4.27;4.07;;;16.00;99.90;;;;;;5052381;28;20290;-52
2022/06/15 01:48:57;;;;;;;4.90;4.60;;;16.10;99.90;;;;;;5048476;28;20198;-52
2022/06/15 01:51:30;;;;;;;5.77;4.70;;;16.10;99.90;;;;;;5052100;28;20193;-51
2022/06/15 01:54:00;;;;;;;4.77;4.57;;;16.10;99.90;;;;;;5050549;28;20206;-52
2022/06/15 01:56:31;;;;;;;4.53;4.20;;;16.10;99.90;;;;;;5051376;28;20190;-51
2022/06/15 01:59:03;;;;;;;4.33;4.13;;;16.10;99.90;;;;;;5049419;28;20226;-52
2022/06/15 02:01:41;;;;;;;5.30;4.87;;;16.10;99.90;;;;;;5049191;28;20205;-52
2022/06/15 02:04:14;;;;;;;5.00;4.70;;;16.10;99.90;;;;;;5050483;28;20237;-52
2022/06/15 02:06:52;;;;;;;5.10;4.67;;;16.00;99.90;;;;;;5048175;28;20213;-51
2022/06/15 02:09:25;;;;;;;4.73;4.33;;;16.00;99.90;;;;;;5043795;28;20197;-51
2022/06/15 02:11:53;;;;;;;3.97;3.73;;;16.00;99.90;;;;;;5046233;28;20237;-52
2022/06/15 02:14:25;;;;;;;4.93;4.60;;;16.10;99.90;;;;;;5050605;28;20229;-51
2022/06/15 02:16:57;;;;;;;4.67;4.37;;;16.10;99.90;;;;;;5049378;28;20223;-52
2022/06/15 02:19:32;;;;;;;4.90;4.47;;;16.10;99.90;;;;;;5046129;28;20218;-51
2022/06/15 02:22:03;;;;;;;5.17;4.77;;;16.10;99.90;;;;;;5049854;28;20233;-52
2022/06/15 02:24:32;;;;;;;4.87;4.63;;;16.00;99.90;;;;;;5050470;28;20256;-51
2022/06/15 02:26:59;;;;;;;6.10;5.80;;;16.00;99.90;;;;;;5050788;28;20221;-52
2022/06/15 02:29:28;;;;;;;4.77;4.47;;;16.10;99.90;;;;;;5049244;28;20237;-52
2022/06/15 02:31:58;;;;;;;5.57;5.27;;;16.00;99.90;;;;;;5050895;28;20217;-52
2022/06/15 02:34:26;;;;;;;5.70;5.20;;;16.00;99.90;;;;;;5051891;28;20676;-52
2022/06/15 02:36:53;;;;;;;5.60;5.20;;;15.90;99.90;;;;;;5050825;28;20711;-51
2022/06/15 02:39:21;;;;;;;5.77;5.13;;;15.90;99.90;;;;;;5050378;28;20665;-52
2022/06/15 02:41:56;;;;;;;4.63;4.33;;;15.80;99.90;;;;;;5049261;28;20218;-51
2022/06/15 02:44:23;;;;;;;4.87;4.57;;;15.70;99.90;;;;;;5049351;28;20263;-52
2022/06/15 02:46:52;;;;;;;4.83;4.53;;;15.60;99.90;;;;;;5049989;28;20271;-51
2022/06/15 02:49:20;;;;;;;4.57;4.27;;;15.50;99.90;;;;;;5049003;28;20670;-51
2022/06/15 02:51:51;;;;;;;5.00;4.80;;;15.50;99.90;;;;;;5050329;28;20576;-52
2022/06/15 02:54:24;;;;;;;4.33;4.13;;;15.50;99.90;;;;;;5044236;28;20194;-52
2022/06/15 02:56:52;;;;;;;5.80;5.40;;;15.40;99.90;;;;;;5049404;28;20205;-52
2022/06/15 02:59:20;;;;;;;5.50;5.10;;;15.40;99.90;;;;;;5049741;28;20205;-52
2022/06/15 03:01:47;;;;;;;5.20;4.77;;;15.40;99.90;;;;;;5050270;28;20222;-52
2022/06/15 03:04:14;;;;;;;4.90;4.63;;;15.30;99.90;;;;;;5050348;28;20251;-51
2022/06/15 03:06:42;;;;;;;4.53;4.30;;;15.30;99.90;;;;;;5049044;28;20275;-52
2022/06/15 03:09:09;;;;;;;5.23;4.83;;;15.20;99.90;;;;;;5048224;28;20259;-51
2022/06/15 03:11:39;;;;;;;8.27;5.17;;;15.30;99.90;;;;;;5049110;28;20232;-52
2022/06/15 03:14:06;;;;;;;4.67;4.40;;;15.20;99.90;;;;;;5049283;28;20198;-52
2022/06/15 03:16:33;;;;;;;5.80;5.50;;;15.20;99.90;;;;;;5049123;28;20197;-51
2022/06/15 03:19:00;;;;;;;5.70;5.17;;;15.30;99.90;;;;;;5049165;28;20202;-51
2022/06/15 03:21:27;;;;;;;7.23;6.57;;;15.20;99.90;;;;;;5049352;28;20252;-51
2022/06/15 03:23:56;;;;;;;6.27;5.87;;;15.20;99.90;;;;;;5049011;28;20202;-51
2022/06/15 03:26:23;;;;;;;6.90;6.33;;;15.20;99.90;;;;;;5050656;28;20271;-51
2022/06/15 03:28:50;;;;;;;6.40;6.00;;;15.20;99.90;;;;;;5047150;28;20267;-51
2022/06/15 03:31:17;;;;;;;6.33;5.93;;;15.30;99.90;;;;;;5047347;28;20702;-51
2022/06/15 03:33:44;;;;;;;5.33;4.90;;;15.30;99.90;;;;;;5047038;28;20198;-51
2022/06/15 03:36:11;;;;;;;6.30;5.70;;;15.30;99.90;;;;;;5044423;28;20213;-52
2022/06/15 03:38:38;;;;;;;6.60;6.10;;;15.40;99.90;;;;;;5045959;28;20294;-51
2022/06/15 03:41:07;;;;;;;5.97;5.50;;;15.40;99.90;;;;;;5043191;28;20202;-52
2022/06/15 03:43:34;;;;;;;6.33;5.70;;;15.40;99.90;;;;;;5040190;28;20225;-52
2022/06/15 03:46:01;;;;;;;5.47;5.13;;;15.40;99.90;;;;;;5047425;28;20574;-51
2022/06/15 03:48:28;;;;;;;5.47;5.23;;;15.40;99.90;;;;;;5043291;28;20877;-51
2022/06/15 03:50:55;;;;;;;7.93;5.93;;;15.40;99.90;;;;;;5047797;28;20259;-52
2022/06/15 03:53:23;;;;;;;5.23;4.93;;;15.50;99.90;;;;;;5042587;28;20244;-52
2022/06/15 03:55:50;;;;;;;6.03;5.67;;;15.50;99.90;;;;;;5043022;28;20647;-51
2022/06/15 03:58:20;;;;;;;4.73;4.53;;;15.50;99.90;;;;;;5045042;28;20198;-51
2022/06/15 04:00:47;;;;;;;5.77;5.37;;;15.60;99.90;;;;;;5046282;28;20296;-51
2022/06/15 04:03:14;;;;;;;5.40;4.90;;;15.70;99.90;;;;;;5048123;28;20222;-52
2022/06/15 04:05:43;;;;;;;6.13;5.53;;;15.60;99.90;;;;;;5047500;28;20198;-51
2022/06/15 04:10:59;;;;;;;9.07;5.30;;;15.80;99.90;;;;;;5045623;28;20212;-51
2022/06/15 04:13:27;;;;;;;8.73;5.63;;;15.80;99.90;;;;;;5043202;28;20268;-52
2022/06/15 04:15:54;;;;;;;7.47;5.20;;;15.90;99.90;;;;;;5044463;28;20730;-51
2022/06/15 04:18:22;;;;;;;4.93;4.73;;;16.10;99.90;;;;;;5043366;28;20725;-51
2022/06/15 04:20:49;;;;;;;4.93;4.57;;;16.20;99.90;;;;;;5042477;28;20289;-52
2022/06/15 04:23:18;;;;;;;4.20;3.90;;;16.20;99.90;;;;;;5043056;28;20310;-52
2022/06/15 04:25:48;;;;;;;5.33;4.90;;;16.30;99.90;;;;;;5043980;28;20747;-51
2022/06/15 04:28:17;;;;;;;4.13;3.93;;;16.40;99.90;;;;;;5048406;28;20222;-51
2022/06/15 04:30:46;;;;;;;4.07;3.70;;;16.50;99.90;;;;;;5046330;28;20198;-52
2022/06/15 04:33:13;;;;;;;4.00;3.80;;;16.60;99.90;;;;;;5049886;28;20221;-51
2022/06/15 04:35:41;;;;;;;4.23;4.00;;;16.70;99.90;;;;;;5049309;28;20660;-51
2022/06/15 04:38:08;;;;;;;3.77;3.57;;;16.80;99.90;;;;;;5046944;28;20218;-52
2022/06/15 04:40:37;;;;;;;5.17;4.77;;;16.90;99.90;;;;;;5049037;28;20202;-51
2022/06/15 04:43:05;;;;;;;5.63;3.70;;;17.10;99.90;;;;;;5052463;28;20287;-51
2022/06/15 04:45:32;;;;;;;6.33;5.70;;;17.10;99.90;;;;;;5049242;28;20202;-52
2022/06/15 04:48:01;;;;;;;5.23;4.80;;;17.30;99.90;;;;;;5044618;28;20594;-52
2022/06/15 04:50:29;;;;;;;6.20;5.80;;;17.40;99.90;;;;;;5052900;28;20659;-52
2022/06/15 04:52:56;;;;;;;5.00;4.53;;;17.60;99.90;;;;;;5051974;28;20639;-52
2022/06/15 04:55:25;;;;;;;5.40;5.10;;;17.80;99.90;;;;;;5052016;28;20252;-52
2022/06/15 04:57:54;;;;;;;5.47;5.20;;;18.00;99.90;;;;;;5042945;28;20271;-52
2022/06/15 05:00:24;;;;;;;4.53;3.83;;;18.10;99.90;;;;;;5051706;28;20656;-51
2022/06/15 05:02:51;;;;;;;4.50;4.17;;;18.10;99.90;;;;;;5046709;28;20218;-52
2022/06/15 05:05:19;;;;;;;4.23;3.93;;;18.10;99.90;;;;;;5052360;28;20206;-52
2022/06/15 05:07:47;;;;;;;4.90;4.60;;;18.30;99.90;;;;;;5051928;28;20210;-52
2022/06/15 05:10:18;;;;;;;4.73;4.27;;;18.50;99.90;;;;;;5051843;28;20251;-51
2022/06/15 05:12:49;;;;;;;4.13;3.73;;;18.90;99.90;;;;;;5051370;28;20233;-52
2022/06/15 05:15:17;;;;;;;3.40;3.30;;;19.10;99.90;;;;;;5048222;28;20193;-51
2022/06/15 05:17:46;;;;;;;3.53;3.43;;;19.00;99.90;;;;;;5046065;28;20229;-52
2022/06/15 05:20:15;;;;;;;3.50;3.30;;;19.20;99.90;;;;;;5041143;28;20310;-51
2022/06/15 05:22:43;;;;;;;4.00;3.70;;;19.80;99.90;;;;;;5046830;28;20700;-52
2022/06/15 05:25:11;;;;;;;2.47;2.37;;;20.60;99.90;;;;;;5046717;28;20237;-52
2022/06/15 05:27:39;;;;;;;2.80;2.60;;;21.20;99.90;;;;;;5051723;28;20217;-52
2022/06/15 05:30:07;;;;;;;3.10;3.00;;;21.40;99.90;;;;;;5051828;28;20247;-52
2022/06/15 05:32:35;;;;;;;2.90;2.67;;;21.80;99.90;;;;;;5049416;28;20217;-52
2022/06/15 05:35:02;;;;;;;2.67;2.57;;;22.40;99.90;;;;;;5047051;28;20263;-52
2022/06/15 05:37:30;;;;;;;3.27;2.93;;;23.10;99.90;;;;;;5051976;28;20224;-52
2022/06/15 05:39:59;;;;;;;5.03;2.40;;;23.90;99.90;;;;;;5051965;28;20604;-52
2022/06/15 05:42:28;;;;;;;2.70;2.40;;;24.20;99.90;;;;;;5051854;28;20226;-53
2022/06/15 05:44:55;;;;;;;3.03;2.60;;;24.70;99.90;;;;;;5050707;28;20251;-52
2022/06/15 05:47:23;;;;;;;2.50;2.40;;;24.50;99.90;;;;;;5032908;28;20240;-52
2022/06/15 05:49:50;;;;;;;2.30;2.17;;;24.80;99.90;;;;;;5032705;28;20300;-53
2022/06/15 05:52:17;;;;;;;3.33;3.23;;;25.50;99.90;;;;;;5032263;28;20336;-52
2022/06/15 05:54:44;;;;;;;2.70;2.60;;;25.30;99.90;;;;;;5032449;28;20198;-52
2022/06/15 05:57:18;;;;;;;2.73;2.53;;;25.50;99.90;;;;;;5060400;22;20712;-50
2022/06/15 05:59:45;;;;;;;2.80;2.60;;;26.00;99.90;;;;;;5049197;28;20193;-48
2022/06/15 06:02:13;;;;;;;2.97;2.80;;;26.00;99.90;;;;;;5051473;28;20202;-48
2022/06/15 06:04:40;;;;;;;2.90;2.70;;;26.20;99.90;;;;;;5052713;28;20218;-48
2022/06/15 06:07:07;;;;;;;3.03;2.83;;;26.20;99.90;;;;;;5052800;28;20699;-47
2022/06/15 06:09:34;;;;;;;2.65;2.55;;;26.50;99.90;;;;;;5042690;28;20225;-48
2022/06/15 06:12:01;;;;;;;4.28;2.92;;;27.00;99.90;;;;;;5051445;28;20247;-48
2022/06/15 06:14:29;;;;;;;2.60;2.50;;;27.60;99.90;;;;;;5052674;28;20293;-47
2022/06/15 06:16:56;;;;;;;3.35;3.10;;;26.80;99.90;;;;;;5043515;28;20698;-48
2022/06/15 06:19:23;;;;;;;3.13;2.90;;;26.50;99.90;;;;;;5048859;28;20206;-47
2022/06/15 06:21:50;;;;;;;4.20;3.85;;;26.00;99.90;;;;;;5039237;28;20277;-47
2022/06/15 06:24:18;;;;;;;3.67;3.42;;;25.30;99.90;;;;;;5033308;28;20202;-47
2022/06/15 06:26:45;;;;;;;3.87;3.57;;;24.40;99.90;;;;;;5051183;28;20668;-47
2022/06/15 06:29:14;;;;;;;4.20;3.77;;;23.70;99.90;;;;;;5041092;28;20300;-47
2022/06/15 06:31:43;;;;;;;6.30;4.45;;;23.40;99.90;;;;;;5039075;28;20456;-48
2022/06/15 06:34:11;;;;;;;4.27;4.07;;;23.30;99.90;;;;;;5042070;28;20202;-48
2022/06/15 06:36:41;;;;;;;7.10;6.40;;;23.30;99.90;;;;;;5042306;28;20264;-48
2022/06/15 06:39:15;;;;;;;4.83;4.43;;;24.00;99.90;;;;;;5047056;28;20460;-48
2022/06/15 06:41:42;;;;;;;6.70;4.50;;;24.20;99.90;;;;;;5041432;28;20229;-48
2022/06/15 06:44:11;;;;;;;5.03;4.50;;;24.40;99.90;;;;;;5036578;28;20285;-47
2022/06/15 06:46:45;;;;;;;5.00;4.57;;;24.80;99.90;;;;;;5051595;28;20241;-48
2022/06/15 06:49:13;;;;;;;4.60;4.30;;;24.90;99.90;;;;;;5043410;28;20218;-48
2022/06/15 06:51:41;;;;;;;3.50;3.30;;;25.50;99.90;;;;;;5050428;28;20201;-48
2022/06/15 06:54:11;;;;;;;5.00;3.67;;;25.20;99.90;;;;;;5049324;28;20230;-48
2022/06/15 06:56:38;;;;;;;3.63;3.27;;;24.90;99.90;;;;;;5042918;28;20231;-47
2022/06/15 06:59:06;;;;;;;4.43;4.23;;;24.70;99.90;;;;;;5039368;28;20654;-47
2022/06/15 07:01:33;;;;;;;4.67;4.37;;;25.10;99.90;;;;;;5051111;28;20764;-48
2022/06/15 07:04:01;;;;;;;4.30;4.10;;;25.20;99.90;;;;;;5051953;28;20205;-47
2022/06/15 07:06:28;;;;;;;4.50;4.00;;;25.20;99.90;;;;;;5040113;28;20257;-47
2022/06/15 07:08:57;;;;;;;3.97;3.77;;;25.10;99.90;;;;;;5031816;28;20222;-48
2022/06/15 07:11:25;;;;;;;7.25;4.55;;;25.00;99.90;;;;;;5047719;28;20737;-48
2022/06/15 07:13:52;;;;;;;4.53;4.23;;;25.50;99.90;;;;;;5052034;28;20216;-48
2022/06/15 07:16:21;;;;;;;4.93;4.47;;;26.30;99.90;;;;;;5051028;28;20212;-48
2022/06/15 07:18:48;;;;;;;5.00;4.70;;;26.70;99.90;;;;;;5056152;28;21235;-49
2022/06/15 07:21:19;;;;;;;5.32;4.47;;;27.60;99.90;;;;;;5046144;28;20252;-49
2022/06/15 07:23:49;;;;;;;4.78;4.40;;;28.00;99.90;;;;;;5033389;28;20209;-48
2022/06/15 07:26:20;;;;;;;4.15;3.90;;;28.30;99.90;;;;;;5039117;28;20739;-51
2022/06/15 07:28:47;;;;;;;3.97;3.88;;;27.70;99.90;;;;;;5034067;28;20234;-51
2022/06/15 07:31:21;;;;;;;4.38;3.97;;;28.00;99.90;;;;;;5037823;28;20202;-50
2022/06/15 07:33:48;;;;;;;8.02;7.20;;;27.90;99.90;;;;;;5054381;28;20200;-51
2022/06/15 07:36:17;;;;;;;7.97;7.10;;;27.40;99.90;;;;;;5046152;28;20253;-50
2022/06/15 07:38:44;;;;;;;6.18;5.60;;;26.00;99.90;;;;;;5031523;28;20732;-50
2022/06/15 07:41:11;;;;;;;7.38;6.88;;;25.50;99.90;;;;;;5050235;28;20202;-50
2022/06/15 07:43:39;;;;;;;7.90;7.13;;;25.60;99.90;;;;;;5051277;28;20208;-50
2022/06/15 07:46:06;;;;;;;7.07;6.30;;;26.30;99.90;;;;;;5051160;28;20233;-51
2022/06/15 07:51:29;;;;;;;6.77;6.30;;;25.50;99.90;;;;;;5031161;28;20205;-51
2022/06/15 07:53:56;;;;;;;6.05;5.57;;;26.20;99.90;;;;;;5043305;28;20289;-50
2022/06/15 07:56:23;;;;;;;5.13;4.78;;;26.30;99.90;;;;;;5046049;28;20206;-51
2022/06/15 07:58:50;;;;;;;5.75;5.32;;;27.20;99.90;;;;;;5040739;28;20269;-50
2022/06/15 08:01:18;;;;;;;6.72;6.13;;;27.90;99.90;;;;;;5040777;28;20221;-50
2022/06/15 08:03:45;;;;;;;6.65;6.10;;;28.00;99.90;;;;;;5046696;28;20208;-50
2022/06/15 08:06:13;;;;;;;5.40;4.90;;;27.70;99.90;;;;;;5033287;28;20611;-50
2022/06/15 08:08:43;;;;;;;10.88;8.40;;;27.20;99.90;;;;;;5035736;28;20222;-51
2022/06/15 08:11:10;;;;;;;7.53;6.95;;;26.20;99.90;;;;;;5054626;28;20202;-51
2022/06/15 08:13:37;;;;;;;5.85;5.28;;;25.50;99.90;;;;;;5047736;28;20202;-51
2022/06/15 08:16:05;;;;;;;7.07;6.43;;;25.20;99.90;;;;;;5052981;28;20309;-51
2022/06/15 08:18:35;;;;;;;6.97;5.53;;;25.60;99.90;;;;;;5047539;28;20220;-50
2022/06/15 08:21:06;;;;;;;4.85;4.45;;;26.70;99.90;;;;;;5055263;28;20303;-50
2022/06/15 08:23:37;;;;;;;5.63;5.10;;;26.60;99.90;;;;;;5059734;28;20198;-50
2022/06/15 08:26:11;;;;;;;6.55;5.40;;;26.30;99.90;;;;;;5054340;28;20252;-50
2022/06/15 08:28:40;;;;;;;4.70;4.53;;;26.00;99.90;;;;;;5044208;28;20222;-50
2022/06/15 08:31:07;;;;;;;5.97;5.53;;;25.50;99.90;;;;;;5035068;28;20213;-50
2022/06/15 08:33:34;;;;;;;6.73;6.23;;;25.30;99.90;;;;;;5034982;28;20202;-50
2022/06/15 08:36:02;;;;;;;5.47;4.95;;;25.10;99.90;;;;;;5041816;28;20223;-50
2022/06/15 08:38:29;;;;;;;5.67;5.20;;;25.00;99.90;;;;;;5044772;28;20619;-50
2022/06/15 08:40:59;;;;;;;5.57;5.03;;;24.90;99.90;;;;;;5042735;28;20195;-50
2022/06/15 08:43:38;;;;;;;6.20;5.27;;;24.90;99.90;;;;;;5047346;28;20558;-51
2022/06/15 08:46:16;;;;;;;5.03;4.73;;;24.90;99.90;;;;;;5054758;28;20202;-50
2022/06/15 08:49:00;;;;;;;6.53;5.53;;;25.00;99.90;;;;;;5054313;28;20218;-51
2022/06/15 08:51:31;;;;;;;5.07;4.57;;;25.20;99.90;;;;;;5054179;28;20213;-50
2022/06/15 08:54:04;;;;;;;9.77;5.43;;;25.20;99.90;;;;;;5039996;28;20198;-50
2022/06/15 08:56:37;;;;;;;6.63;6.17;;;25.00;99.90;;;;;;5036621;28;20214;-50
2022/06/15 08:59:12;;;;;;;5.57;5.10;;;25.10;99.90;;;;;;5054384;28;20611;-50
2022/06/15 09:01:44;;;;;;;6.07;5.67;;;25.10;99.90;;;;;;5054083;28;20201;-50
2022/06/15 09:04:22;;;;;;;5.03;4.80;;;25.30;99.90;;;;;;5048718;28;20195;-50
2022/06/15 09:07:03;;;;;;;4.40;4.07;;;25.40;99.90;;;;;;5034305;28;20199;-50
2022/06/15 09:09:47;;;;;;;6.10;5.50;;;25.40;99.90;;;;;;5047243;28;20224;-50
2022/06/15 09:15:23;;;;;;;6.00;5.50;;;25.50;99.90;;;;;;5040470;28;20203;-50
2022/06/15 09:17:53;;;;;;;6.20;5.70;;;25.50;99.90;;;;;;5049604;28;20229;-51
2022/06/15 09:20:27;;;;;;;6.27;5.77;;;25.60;99.90;;;;;;5044127;28;20209;-51
2022/06/15 09:23:00;;;;;;;6.82;6.32;;;25.80;99.90;;;;;;5051273;28;20193;-51
2022/06/15 09:25:34;;;;;;;5.63;5.22;;;26.10;99.90;;;;;;5042169;28;20195;-50
2022/06/15 09:28:06;;;;;;;6.40;5.80;;;26.00;99.90;;;;;;5040491;28;20253;-51
2022/06/15 09:30:40;;;;;;;7.40;6.70;;;25.90;99.90;;;;;;5042301;28;20210;-50
2022/06/15 09:33:14;;;;;;;7.00;6.43;;;25.50;99.90;;;;;;5046986;28;20256;-50
2022/06/15 09:35:46;;;;;;;6.70;5.93;;;25.20;99.90;;;;;;5053705;28;20205;-50
2022/06/15 09:38:17;;;;;;;6.07;5.67;;;25.40;99.90;;;;;;5053101;28;20226;-50
2022/06/15 09:40:53;;;;;;;4.95;4.75;;;25.80;99.90;;;;;;5046901;28;20191;-50
2022/06/15 09:43:35;;;;;;;6.28;5.70;;;26.00;99.90;;;;;;5040499;28;20245;-50
2022/06/15 09:46:13;;;;;;;6.40;5.83;;;26.20;99.90;;;;;;5053495;28;20209;-50
2022/06/15 09:48:58;;;;;;;10.25;5.30;;;26.80;99.90;;;;;;5053429;28;20225;-50
2022/06/15 09:51:34;;;;;;;6.60;6.13;;;26.80;99.90;;;;;;5053302;28;20205;-50
2022/06/15 09:54:07;;;;;;;5.43;5.22;;;26.90;99.90;;;;;;5053652;28;20205;-50
2022/06/15 09:56:35;;;;;;;6.60;6.10;;;26.90;99.90;;;;;;5053617;28;20209;-50
2022/06/15 09:59:04;;;;;;;5.95;5.65;;;26.90;99.90;;;;;;5053002;28;20229;-51
2022/06/15 10:01:37;;;;;;;6.25;5.85;;;27.10;99.90;;;;;;5051720;28;20216;-51
2022/06/15 10:04:06;;;;;;;6.22;5.68;;;27.60;99.90;;;;;;5037380;28;20668;-51
2022/06/15 10:06:39;;;;;;;5.22;4.93;;;28.40;99.90;;;;;;5046076;28;20193;-50
2022/06/15 10:09:09;;;;;;;6.82;6.18;;;28.20;99.90;;;;;;5044759;28;20217;-50
2022/06/15 10:11:40;;;;;;;6.10;5.70;;;28.50;99.90;;;;;;5044116;28;20218;-50
2022/06/15 10:14:25;;;;;;;8.32;7.57;;;28.70;99.90;;;;;;5036117;28;20198;-50
2022/06/15 10:16:58;;;;;;;5.93;5.63;;;29.10;99.90;;;;;;5051139;28;20212;-50
2022/06/15 10:19:27;;;;;;;6.63;6.20;;;29.10;99.90;;;;;;5037779;28;20198;-50
2022/06/15 10:21:57;;;;;;;6.28;5.38;;;29.00;99.90;;;;;;5047275;28;20197;-50
2022/06/15 10:24:28;;;;;;;5.90;5.45;;;29.20;99.90;;;;;;5044441;28;20198;-50
2022/06/15 10:27:29;;;;;;;5.25;4.75;;;29.50;99.90;;;;;;5050581;28;20251;-50
2022/06/15 10:30:13;;;;;;;6.15;5.65;;;29.90;99.90;;;;;;5042747;28;20217;-50
2022/06/15 10:33:02;;;;;;;5.88;5.22;;;30.20;99.90;;;;;;5046737;28;20247;-49
2022/06/15 10:35:32;;;;;;;5.40;5.10;;;30.60;99.90;;;;;;5042880;28;20287;-50
2022/06/15 10:38:02;;;;;;;5.53;5.05;;;30.70;99.90;;;;;;5035957;28;20279;-50
2022/06/15 10:40:31;;;;;;;5.55;4.30;;;30.30;99.90;;;;;;5045246;28;20221;-50
2022/06/15 10:43:03;;;;;;;4.32;3.97;;;30.20;99.90;;;;;;5049613;28;20204;-50
2022/06/15 10:45:35;;;;;;;3.78;3.67;;;30.10;99.90;;;;;;5046769;28;20209;-50
2022/06/15 10:48:07;;;;;;;5.75;4.85;;;30.00;99.90;;;;;;5042233;28;20323;-50
2022/06/15 10:50:42;;;;;;;4.72;4.30;;;30.00;99.90;;;;;;5051103;28;20253;-50
2022/06/15 10:53:27;;;;;;;4.43;4.07;;;29.40;99.90;;;;;;5047995;28;20200;-50
2022/06/15 11:04:28;;;;;;;5.38;3.67;;;30.00;99.90;;;;;;5032042;28;20621;-51
2022/06/15 11:07:04;;;;;;;3.13;2.92;;;30.10;99.90;;;;;;5045278;28;20210;-50
2022/06/15 11:09:34;;;;;;;3.58;3.13;;;29.80;99.90;;;;;;5048494;28;20221;-51
2022/06/15 11:12:07;;;;;;;3.67;3.35;;;29.90;99.90;;;;;;5047412;28;20844;-50
2022/06/15 11:14:48;;;;;;;5.57;3.33;;;29.90;99.90;;;;;;5044277;28;20202;-51
2022/06/15 11:20:29;;;;;;;3.08;2.97;;;30.40;99.90;;;;;;5042170;28;20572;-50
2022/06/15 11:23:02;;;;;;;3.30;2.83;;;29.70;99.90;;;;;;5048985;28;20244;-50
2022/06/15 11:25:42;;;;;;;3.03;2.72;;;29.60;99.90;;;;;;5037119;28;20251;-51
2022/06/15 11:28:17;;;;;;;3.58;3.47;;;29.40;99.90;;;;;;5040528;28;20226;-50
2022/06/15 11:30:52;;;;;;;4.22;2.90;;;29.00;99.90;;;;;;5041135;28;20228;-50
2022/06/15 11:33:23;;;;;;;5.35;3.67;;;29.00;99.90;;;;;;5042624;28;20194;-50
2022/06/15 11:36:02;;;;;;;4.70;3.90;;;28.90;99.90;;;;;;5049231;28;20202;-51
2022/06/15 11:38:40;;;;;;;3.42;3.13;;;28.70;99.90;;;;;;5049373;28;20217;-50
2022/06/15 11:41:23;;;;;;;4.05;3.67;;;28.70;99.90;;;;;;5042787;28;20824;-50
2022/06/15 11:43:52;;;;;;;3.30;3.10;;;28.80;99.90;;;;;;5040623;28;20202;-50
2022/06/15 11:46:37;;;;;;;3.78;3.65;;;28.90;99.90;;;;;;5043533;28;20208;-50
2022/06/15 11:49:27;;;;;;;3.00;2.90;;;28.90;99.90;;;;;;5040445;28;20228;-50
2022/06/15 11:52:08;;;;;;;5.68;3.72;;;29.10;99.90;;;;;;5040397;28;20657;-50
2022/06/15 11:55:06;;;;;;;8.77;3.47;;;29.20;99.90;;;;;;5041730;28;20729;-50
2022/06/15 11:57:43;;;;;;;3.58;2.67;;;29.00;99.90;;;;;;5060482;22;20950;-52
2022/06/15 12:00:20;;;;;;;2.65;2.55;;;28.80;99.90;;;;;;5041329;28;20200;-52
2022/06/15 12:03:09;;;;;;;3.42;2.60;;;28.80;99.90;;;;;;5040467;28;20202;-51
2022/06/15 12:05:41;;;;;;;2.70;2.60;;;28.80;99.90;;;;;;5048354;28;20679;-53
2022/06/15 12:08:31;;;;;;;2.70;2.50;;;28.90;99.90;;;;;;5050690;28;20646;-52
2022/06/15 12:11:04;;;;;;;4.57;2.88;;;29.00;99.90;;;;;;5040086;28;20312;-52
2022/06/15 12:13:45;;;;;;;2.95;2.75;;;29.10;99.90;;;;;;5030853;28;20276;-52
2022/06/15 12:16:19;;;;;;;3.35;3.05;;;29.20;99.90;;;;;;5036489;28;20208;-52
2022/06/15 12:18:59;;;;;;;4.05;3.10;;;29.40;99.90;;;;;;5050762;28;20696;-52
2022/06/15 12:21:37;;;;;;;2.92;2.70;;;29.40;99.90;;;;;;5050554;28;20228;-52
2022/06/15 12:24:18;;;;;;;3.60;3.40;;;29.40;99.90;;;;;;5050856;28;20201;-52
2022/06/15 12:26:53;;;;;;;3.63;2.78;;;29.40;99.90;;;;;;5048717;28;20285;-51
2022/06/15 12:29:38;;;;;;;3.75;3.45;;;29.40;99.90;;;;;;5046677;28;20222;-51
2022/06/15 12:35:38;;;;;;;2.95;2.63;;;29.30;99.90;;;;;;5044156;28;20197;-51
2022/06/15 12:38:13;;;;;;;3.40;3.20;;;29.10;99.90;;;;;;5004751;28;20224;-52
2022/06/15 12:40:44;;;;;;;2.88;2.67;;;29.20;99.90;;;;;;5044652;28;20228;-51
2022/06/15 12:43:26;;;;;;;3.45;2.80;;;29.20;99.90;;;;;;5044967;28;20279;-51
2022/06/15 12:45:58;;;;;;;2.75;2.55;;;29.20;99.90;;;;;;5048865;28;20235;-52
2022/06/15 12:48:35;;;;;;;2.88;2.67;;;29.20;99.90;;;;;;5045620;28;20214;-51
2022/06/15 12:51:08;;;;;;;3.33;2.47;;;29.20;99.90;;;;;;5048828;28;20275;-54
2022/06/15 12:53:46;;;;;;;3.60;3.42;;;29.30;99.90;;;;;;5043204;28;20230;-51
2022/06/15 12:56:25;;;;;;;2.80;2.70;;;29.30;99.90;;;;;;5033971;28;20224;-54
2022/06/15 12:59:00;;;;;;;7.82;2.83;;;29.20;99.90;;;;;;5049131;28;20275;-53
2022/06/15 13:01:35;;;;;;;3.10;2.88;;;29.20;99.90;;;;;;5043496;28;20276;-53
2022/06/15 13:04:16;;;;;;;3.53;3.22;;;29.30;99.90;;;;;;5044767;28;20640;-53
2022/06/15 13:06:44;;;;;;;6.20;3.03;;;29.30;99.90;;;;;;5053141;28;20604;-51
2022/06/15 13:09:21;;;;;;;5.82;2.70;;;29.10;99.90;;;;;;5050801;28;20259;-51
2022/06/15 13:11:58;;;;;;;3.15;2.95;;;29.00;99.90;;;;;;5051038;28;20229;-52
2022/06/15 13:14:28;;;;;;;3.20;2.97;;;29.00;99.90;;;;;;5047179;28;20310;-54
2022/06/15 13:17:08;;;;;;;3.40;3.20;;;29.00;99.90;;;;;;5045526;28;20673;-53
2022/06/15 13:19:40;;;;;;;3.25;3.05;;;29.10;99.90;;;;;;5053232;28;20255;-52
2022/06/15 13:22:15;;;;;;;3.60;3.33;;;29.20;99.90;;;;;;5045286;28;20667;-54
2022/06/15 13:24:56;;;;;;;3.45;3.05;;;29.20;99.90;;;;;;5053801;28;20201;-52
2022/06/15 13:27:28;;;;;;;2.90;2.80;;;29.10;99.90;;;;;;5053950;28;20205;-53
2022/06/15 13:30:23;;;;;;;3.90;3.17;;;29.10;99.90;;;;;;5041386;28;20595;-54
2022/06/15 13:32:57;;;;;;;6.32;3.20;;;29.10;99.90;;;;;;5046566;28;20248;-53